sensor_id;sensor_type;location;lat;lon;timestamp;P1;durP1;ratioP1;P2;durP2;ratioP2
17614;SDS011;8926;49.720;6.576;2022-12-18T00:03:49;25.00;;;14.43;;
17614;SDS011;8926;49.720;6.576;2022-12-18T00:06:15;22.43;;;13.40;;
17614;SDS011;8926;49.720;6.576;2022-12-18T00:08:41;19.93;;;13.27;;
17614;SDS011;8926;49.720;6.576;2022-12-18T00:11:08;17.63;;;11.85;;
17614;SDS011;8926;49.720;6.576;2022-12-18T00:13:38;23.30;;;13.30;;
17614;SDS011;8926;49.720;6.576;2022-12-18T00:16:05;23.23;;;13.20;;
17614;SDS011;8926;49.720;6.576;2022-12-18T00:18:32;27.17;;;15.43;;
17614;SDS011;8926;49.720;6.576;2022-12-18T00:20:58;22.17;;;13.53;;
17614;SDS011;8926;49.720;6.576;2022-12-18T00:23:26;29.07;;;15.97;;
17614;SDS011;8926;49.720;6.576;2022-12-18T00:25:51;26.27;;;15.50;;
17614;SDS011;8926;49.720;6.576;2022-12-18T00:28:17;23.07;;;14.63;;
17614;SDS011;8926;49.720;6.576;2022-12-18T00:30:42;19.53;;;12.67;;
17614;SDS011;8926;49.720;6.576;2022-12-18T00:33:07;26.20;;;15.13;;
17614;SDS011;8926;49.720;6.576;2022-12-18T00:35:33;21.83;;;13.40;;
17614;SDS011;8926;49.720;6.576;2022-12-18T00:37:58;19.00;;;12.47;;
17614;SDS011;8926;49.720;6.576;2022-12-18T00:40:23;23.03;;;12.97;;
17614;SDS011;8926;49.720;6.576;2022-12-18T00:42:48;23.53;;;14.07;;
17614;SDS011;8926;49.720;6.576;2022-12-18T00:45:23;20.15;;;12.40;;
17614;SDS011;8926;49.720;6.576;2022-12-18T00:47:50;25.20;;;15.13;;
17614;SDS011;8926;49.720;6.576;2022-12-18T00:50:15;21.50;;;13.30;;
17614;SDS011;8926;49.720;6.576;2022-12-18T00:52:41;32.47;;;18.43;;
17614;SDS011;8926;49.720;6.576;2022-12-18T00:55:06;25.87;;;15.30;;
17614;SDS011;8926;49.720;6.576;2022-12-18T00:57:32;24.47;;;14.13;;
17614;SDS011;8926;49.720;6.576;2022-12-18T00:59:57;24.07;;;13.67;;
17614;SDS011;8926;49.720;6.576;2022-12-18T01:02:22;24.27;;;13.97;;
17614;SDS011;8926;49.720;6.576;2022-12-18T01:04:48;22.03;;;12.93;;
17614;SDS011;8926;49.720;6.576;2022-12-18T01:07:13;23.27;;;13.40;;
17614;SDS011;8926;49.720;6.576;2022-12-18T01:09:38;20.97;;;13.43;;
17614;SDS011;8926;49.720;6.576;2022-12-18T01:12:04;22.47;;;13.83;;
17614;SDS011;8926;49.720;6.576;2022-12-18T01:14:29;16.87;;;11.40;;
17614;SDS011;8926;49.720;6.576;2022-12-18T01:16:54;17.40;;;12.50;;
17614;SDS011;8926;49.720;6.576;2022-12-18T01:19:20;19.33;;;11.83;;
17614;SDS011;8926;49.720;6.576;2022-12-18T01:21:45;20.77;;;13.30;;
17614;SDS011;8926;49.720;6.576;2022-12-18T01:24:11;20.50;;;12.53;;
17614;SDS011;8926;49.720;6.576;2022-12-18T01:26:37;21.93;;;13.87;;
17614;SDS011;8926;49.720;6.576;2022-12-18T01:29:02;21.00;;;12.40;;
17614;SDS011;8926;49.720;6.576;2022-12-18T01:31:28;19.00;;;11.80;;
17614;SDS011;8926;49.720;6.576;2022-12-18T01:33:55;21.30;;;12.20;;
17614;SDS011;8926;49.720;6.576;2022-12-18T01:36:22;19.80;;;11.67;;
17614;SDS011;8926;49.720;6.576;2022-12-18T01:38:49;20.47;;;12.90;;
17614;SDS011;8926;49.720;6.576;2022-12-18T01:41:16;23.37;;;14.07;;
17614;SDS011;8926;49.720;6.576;2022-12-18T01:44:46;20.23;;;13.30;;
17614;SDS011;8926;49.720;6.576;2022-12-18T01:46:48;17.38;;;12.85;;
17614;SDS011;8926;49.720;6.576;2022-12-18T01:49:14;20.93;;;13.47;;
17614;SDS011;8926;49.720;6.576;2022-12-18T01:51:39;23.53;;;13.73;;
17614;SDS011;8926;49.720;6.576;2022-12-18T01:54:05;20.03;;;12.83;;
17614;SDS011;8926;49.720;6.576;2022-12-18T01:56:30;22.53;;;13.60;;
17614;SDS011;8926;49.720;6.576;2022-12-18T01:59:02;20.53;;;12.50;;
17614;SDS011;8926;49.720;6.576;2022-12-18T02:01:30;16.98;;;11.50;;
17614;SDS011;8926;49.720;6.576;2022-12-18T02:04:14;18.50;;;11.97;;
17614;SDS011;8926;49.720;6.576;2022-12-18T02:06:47;21.37;;;13.47;;
17614;SDS011;8926;49.720;6.576;2022-12-18T02:09:19;26.40;;;15.00;;
17614;SDS011;8926;49.720;6.576;2022-12-18T02:11:59;22.08;;;13.35;;
17614;SDS011;8926;49.720;6.576;2022-12-18T02:14:34;25.27;;;13.90;;
17614;SDS011;8926;49.720;6.576;2022-12-18T02:17:09;17.43;;;12.60;;
17614;SDS011;8926;49.720;6.576;2022-12-18T02:22:49;20.55;;;12.43;;
17614;SDS011;8926;49.720;6.576;2022-12-18T02:28:16;22.90;;;13.13;;
17614;SDS011;8926;49.720;6.576;2022-12-18T02:30:46;16.83;;;11.47;;
17614;SDS011;8926;49.720;6.576;2022-12-18T02:33:14;20.50;;;13.03;;
17614;SDS011;8926;49.720;6.576;2022-12-18T02:35:40;18.37;;;11.67;;
17614;SDS011;8926;49.720;6.576;2022-12-18T02:38:06;20.48;;;12.10;;
17614;SDS011;8926;49.720;6.576;2022-12-18T02:40:32;17.27;;;12.30;;
17614;SDS011;8926;49.720;6.576;2022-12-18T02:43:11;15.27;;;11.37;;
17614;SDS011;8926;49.720;6.576;2022-12-18T02:45:46;17.27;;;12.10;;
17614;SDS011;8926;49.720;6.576;2022-12-18T02:48:13;23.00;;;12.98;;
17614;SDS011;8926;49.720;6.576;2022-12-18T02:50:41;19.60;;;11.90;;
17614;SDS011;8926;49.720;6.576;2022-12-18T02:58:19;20.17;;;12.25;;
17614;SDS011;8926;49.720;6.576;2022-12-18T03:01:08;20.83;;;13.50;;
17614;SDS011;8926;49.720;6.576;2022-12-18T03:04:01;20.60;;;13.00;;
17614;SDS011;8926;49.720;6.576;2022-12-18T03:06:39;18.15;;;12.52;;
17614;SDS011;8926;49.720;6.576;2022-12-18T03:09:10;20.42;;;12.15;;
17614;SDS011;8926;49.720;6.576;2022-12-18T03:11:40;18.65;;;12.32;;
17614;SDS011;8926;49.720;6.576;2022-12-18T03:14:29;18.88;;;13.00;;
17614;SDS011;8926;49.720;6.576;2022-12-18T03:16:57;18.40;;;12.45;;
17614;SDS011;8926;49.720;6.576;2022-12-18T03:19:26;18.65;;;12.23;;
17614;SDS011;8926;49.720;6.576;2022-12-18T03:21:55;17.33;;;12.32;;
17614;SDS011;8926;49.720;6.576;2022-12-18T03:24:24;18.45;;;11.55;;
17614;SDS011;8926;49.720;6.576;2022-12-18T03:26:54;22.48;;;13.00;;
17614;SDS011;8926;49.720;6.576;2022-12-18T03:29:26;16.20;;;11.43;;
17614;SDS011;8926;49.720;6.576;2022-12-18T03:32:18;16.33;;;11.43;;
17614;SDS011;8926;49.720;6.576;2022-12-18T03:34:50;18.58;;;11.65;;
17614;SDS011;8926;49.720;6.576;2022-12-18T03:37:20;20.77;;;13.57;;
17614;SDS011;8926;49.720;6.576;2022-12-18T03:39:45;21.73;;;13.97;;
17614;SDS011;8926;49.720;6.576;2022-12-18T03:44:57;21.88;;;12.63;;
17614;SDS011;8926;49.720;6.576;2022-12-18T03:47:33;18.70;;;12.77;;
17614;SDS011;8926;49.720;6.576;2022-12-18T03:50:11;17.90;;;12.63;;
17614;SDS011;8926;49.720;6.576;2022-12-18T03:52:45;23.13;;;13.32;;
17614;SDS011;8926;49.720;6.576;2022-12-18T03:55:20;17.90;;;12.15;;
17614;SDS011;8926;49.720;6.576;2022-12-18T03:57:48;19.45;;;11.88;;
17614;SDS011;8926;49.720;6.576;2022-12-18T04:00:15;21.13;;;12.87;;
17614;SDS011;8926;49.720;6.576;2022-12-18T04:02:44;19.33;;;13.07;;
17614;SDS011;8926;49.720;6.576;2022-12-18T04:05:13;21.25;;;13.30;;
17614;SDS011;8926;49.720;6.576;2022-12-18T04:07:40;20.10;;;12.50;;
17614;SDS011;8926;49.720;6.576;2022-12-18T04:10:06;18.20;;;12.38;;
17614;SDS011;8926;49.720;6.576;2022-12-18T04:12:33;17.67;;;11.50;;
17614;SDS011;8926;49.720;6.576;2022-12-18T04:14:58;17.63;;;11.83;;
17614;SDS011;8926;49.720;6.576;2022-12-18T04:17:23;18.03;;;11.00;;
17614;SDS011;8926;49.720;6.576;2022-12-18T04:19:49;15.33;;;10.97;;
17614;SDS011;8926;49.720;6.576;2022-12-18T04:22:14;15.93;;;10.20;;
17614;SDS011;8926;49.720;6.576;2022-12-18T04:24:40;15.43;;;10.33;;
17614;SDS011;8926;49.720;6.576;2022-12-18T04:27:05;14.30;;;10.70;;
17614;SDS011;8926;49.720;6.576;2022-12-18T04:29:30;16.03;;;11.40;;
17614;SDS011;8926;49.720;6.576;2022-12-18T04:31:56;17.27;;;10.90;;
17614;SDS011;8926;49.720;6.576;2022-12-18T04:34:21;16.00;;;11.93;;
17614;SDS011;8926;49.720;6.576;2022-12-18T04:36:46;17.77;;;10.53;;
17614;SDS011;8926;49.720;6.576;2022-12-18T04:39:12;16.45;;;11.23;;
17614;SDS011;8926;49.720;6.576;2022-12-18T04:41:38;15.80;;;11.40;;
17614;SDS011;8926;49.720;6.576;2022-12-18T04:44:03;16.00;;;10.80;;
17614;SDS011;8926;49.720;6.576;2022-12-18T04:46:29;16.95;;;11.00;;
17614;SDS011;8926;49.720;6.576;2022-12-18T04:48:54;18.20;;;11.63;;
17614;SDS011;8926;49.720;6.576;2022-12-18T04:51:20;16.13;;;11.20;;
17614;SDS011;8926;49.720;6.576;2022-12-18T04:53:45;16.80;;;11.63;;
17614;SDS011;8926;49.720;6.576;2022-12-18T04:56:11;13.67;;;10.27;;
17614;SDS011;8926;49.720;6.576;2022-12-18T04:58:38;15.93;;;11.25;;
17614;SDS011;8926;49.720;6.576;2022-12-18T05:01:05;19.30;;;12.63;;
17614;SDS011;8926;49.720;6.576;2022-12-18T05:03:32;22.25;;;12.95;;
17614;SDS011;8926;49.720;6.576;2022-12-18T05:05:58;19.00;;;12.17;;
17614;SDS011;8926;49.720;6.576;2022-12-18T05:08:23;16.23;;;11.53;;
17614;SDS011;8926;49.720;6.576;2022-12-18T05:10:48;16.20;;;11.00;;
17614;SDS011;8926;49.720;6.576;2022-12-18T05:13:14;18.27;;;12.23;;
17614;SDS011;8926;49.720;6.576;2022-12-18T05:15:39;21.37;;;13.13;;
17614;SDS011;8926;49.720;6.576;2022-12-18T05:18:05;20.87;;;12.53;;
17614;SDS011;8926;49.720;6.576;2022-12-18T05:20:30;21.00;;;13.80;;
17614;SDS011;8926;49.720;6.576;2022-12-18T05:22:56;21.73;;;12.77;;
17614;SDS011;8926;49.720;6.576;2022-12-18T05:25:22;19.43;;;12.40;;
17614;SDS011;8926;49.720;6.576;2022-12-18T05:27:48;20.83;;;12.55;;
17614;SDS011;8926;49.720;6.576;2022-12-18T05:30:14;18.60;;;11.87;;
17614;SDS011;8926;49.720;6.576;2022-12-18T05:32:40;17.30;;;12.35;;
17614;SDS011;8926;49.720;6.576;2022-12-18T05:35:06;13.97;;;10.80;;
17614;SDS011;8926;49.720;6.576;2022-12-18T05:37:33;19.58;;;13.05;;
17614;SDS011;8926;49.720;6.576;2022-12-18T05:39:58;18.50;;;12.27;;
17614;SDS011;8926;49.720;6.576;2022-12-18T05:42:23;21.23;;;12.07;;
17614;SDS011;8926;49.720;6.576;2022-12-18T05:44:49;20.53;;;12.70;;
17614;SDS011;8926;49.720;6.576;2022-12-18T05:47:14;18.20;;;12.20;;
17614;SDS011;8926;49.720;6.576;2022-12-18T05:49:40;17.30;;;11.20;;
17614;SDS011;8926;49.720;6.576;2022-12-18T05:52:05;15.37;;;11.27;;
17614;SDS011;8926;49.720;6.576;2022-12-18T05:54:30;18.03;;;11.57;;
17614;SDS011;8926;49.720;6.576;2022-12-18T05:56:56;15.20;;;11.43;;
17614;SDS011;8926;49.720;6.576;2022-12-18T05:59:23;17.98;;;12.15;;
17614;SDS011;8926;49.720;6.576;2022-12-18T06:01:48;19.43;;;12.07;;
17614;SDS011;8926;49.720;6.576;2022-12-18T06:04:14;16.47;;;11.60;;
17614;SDS011;8926;49.720;6.576;2022-12-18T06:06:39;15.03;;;10.40;;
17614;SDS011;8926;49.720;6.576;2022-12-18T06:09:04;18.83;;;12.07;;
17614;SDS011;8926;49.720;6.576;2022-12-18T06:11:35;15.77;;;11.35;;
17614;SDS011;8926;49.720;6.576;2022-12-18T06:14:01;16.17;;;10.82;;
17614;SDS011;8926;49.720;6.576;2022-12-18T06:16:28;12.65;;;10.55;;
17614;SDS011;8926;49.720;6.576;2022-12-18T06:18:58;13.13;;;10.05;;
17614;SDS011;8926;49.720;6.576;2022-12-18T06:21:24;19.90;;;12.65;;
17614;SDS011;8926;49.720;6.576;2022-12-18T06:23:49;18.57;;;12.30;;
17614;SDS011;8926;49.720;6.576;2022-12-18T06:26:15;18.97;;;12.30;;
17614;SDS011;8926;49.720;6.576;2022-12-18T06:28:41;17.40;;;11.83;;
17614;SDS011;8926;49.720;6.576;2022-12-18T06:31:06;19.67;;;12.87;;
17614;SDS011;8926;49.720;6.576;2022-12-18T06:33:33;17.50;;;11.75;;
17614;SDS011;8926;49.720;6.576;2022-12-18T06:35:59;15.63;;;11.13;;
17614;SDS011;8926;49.720;6.576;2022-12-18T06:38:26;16.52;;;12.27;;
17614;SDS011;8926;49.720;6.576;2022-12-18T06:40:52;16.83;;;12.10;;
17614;SDS011;8926;49.720;6.576;2022-12-18T06:43:17;14.50;;;10.53;;
17614;SDS011;8926;49.720;6.576;2022-12-18T06:45:42;17.77;;;12.20;;
17614;SDS011;8926;49.720;6.576;2022-12-18T06:48:07;18.20;;;12.40;;
17614;SDS011;8926;49.720;6.576;2022-12-18T06:50:33;18.23;;;12.60;;
17614;SDS011;8926;49.720;6.576;2022-12-18T06:52:58;18.43;;;12.50;;
17614;SDS011;8926;49.720;6.576;2022-12-18T06:55:24;22.50;;;11.90;;
17614;SDS011;8926;49.720;6.576;2022-12-18T06:57:49;18.47;;;11.10;;
17614;SDS011;8926;49.720;6.576;2022-12-18T07:00:15;18.27;;;11.57;;
17614;SDS011;8926;49.720;6.576;2022-12-18T07:02:40;16.47;;;11.77;;
17614;SDS011;8926;49.720;6.576;2022-12-18T07:05:06;16.57;;;11.07;;
17614;SDS011;8926;49.720;6.576;2022-12-18T07:07:32;16.93;;;11.13;;
17614;SDS011;8926;49.720;6.576;2022-12-18T07:09:58;15.68;;;10.95;;
17614;SDS011;8926;49.720;6.576;2022-12-18T07:12:24;20.30;;;13.57;;
17614;SDS011;8926;49.720;6.576;2022-12-18T07:14:51;23.80;;;14.47;;
17614;SDS011;8926;49.720;6.576;2022-12-18T07:17:17;23.95;;;15.27;;
17614;SDS011;8926;49.720;6.576;2022-12-18T07:19:42;20.73;;;13.33;;
17614;SDS011;8926;49.720;6.576;2022-12-18T07:22:07;15.93;;;12.10;;
17614;SDS011;8926;49.720;6.576;2022-12-18T07:24:33;16.27;;;12.10;;
17614;SDS011;8926;49.720;6.576;2022-12-18T07:26:59;17.30;;;11.68;;
17614;SDS011;8926;49.720;6.576;2022-12-18T07:29:24;16.03;;;12.43;;
17614;SDS011;8926;49.720;6.576;2022-12-18T07:31:50;21.70;;;12.70;;
17614;SDS011;8926;49.720;6.576;2022-12-18T07:34:15;20.87;;;13.40;;
17614;SDS011;8926;49.720;6.576;2022-12-18T07:36:40;23.87;;;13.50;;
17614;SDS011;8926;49.720;6.576;2022-12-18T07:39:06;15.07;;;11.90;;
17614;SDS011;8926;49.720;6.576;2022-12-18T07:41:32;21.80;;;12.57;;
17614;SDS011;8926;49.720;6.576;2022-12-18T07:43:57;19.57;;;14.07;;
17614;SDS011;8926;49.720;6.576;2022-12-18T07:46:22;20.33;;;12.83;;
17614;SDS011;8926;49.720;6.576;2022-12-18T07:48:48;19.57;;;12.63;;
17614;SDS011;8926;49.720;6.576;2022-12-18T07:51:13;16.20;;;12.43;;
17614;SDS011;8926;49.720;6.576;2022-12-18T07:53:39;19.60;;;13.87;;
17614;SDS011;8926;49.720;6.576;2022-12-18T07:56:05;22.37;;;14.40;;
17614;SDS011;8926;49.720;6.576;2022-12-18T07:58:33;23.58;;;14.63;;
17614;SDS011;8926;49.720;6.576;2022-12-18T08:01:03;18.45;;;13.82;;
17614;SDS011;8926;49.720;6.576;2022-12-18T08:03:30;21.92;;;14.40;;
17614;SDS011;8926;49.720;6.576;2022-12-18T08:05:59;19.80;;;13.63;;
17614;SDS011;8926;49.720;6.576;2022-12-18T08:08:26;20.20;;;13.70;;
17614;SDS011;8926;49.720;6.576;2022-12-18T08:10:51;14.40;;;11.67;;
17614;SDS011;8926;49.720;6.576;2022-12-18T08:13:17;21.60;;;13.43;;
17614;SDS011;8926;49.720;6.576;2022-12-18T08:15:42;20.30;;;13.53;;
17614;SDS011;8926;49.720;6.576;2022-12-18T08:18:07;24.27;;;14.27;;
17614;SDS011;8926;49.720;6.576;2022-12-18T08:20:32;18.87;;;12.77;;
17614;SDS011;8926;49.720;6.576;2022-12-18T08:22:58;19.97;;;14.30;;
17614;SDS011;8926;49.720;6.576;2022-12-18T08:25:23;25.20;;;15.40;;
17614;SDS011;8926;49.720;6.576;2022-12-18T08:27:48;24.03;;;15.90;;
17614;SDS011;8926;49.720;6.576;2022-12-18T08:30:14;22.37;;;14.20;;
17614;SDS011;8926;49.720;6.576;2022-12-18T08:32:39;26.23;;;16.47;;
17614;SDS011;8926;49.720;6.576;2022-12-18T08:35:04;19.87;;;14.40;;
17614;SDS011;8926;49.720;6.576;2022-12-18T08:37:30;21.17;;;14.27;;
17614;SDS011;8926;49.720;6.576;2022-12-18T08:39:55;19.37;;;13.97;;
17614;SDS011;8926;49.720;6.576;2022-12-18T08:42:21;23.10;;;14.90;;
17614;SDS011;8926;49.720;6.576;2022-12-18T08:45:05;20.80;;;14.53;;
17614;SDS011;8926;49.720;6.576;2022-12-18T08:47:31;26.13;;;17.10;;
17614;SDS011;8926;49.720;6.576;2022-12-18T08:49:56;24.50;;;16.40;;
17614;SDS011;8926;49.720;6.576;2022-12-18T08:52:21;16.57;;;14.37;;
17614;SDS011;8926;49.720;6.576;2022-12-18T08:54:46;21.70;;;15.57;;
17614;SDS011;8926;49.720;6.576;2022-12-18T08:57:12;19.60;;;16.17;;
17614;SDS011;8926;49.720;6.576;2022-12-18T08:59:37;23.20;;;18.73;;
17614;SDS011;8926;49.720;6.576;2022-12-18T09:02:02;26.03;;;19.57;;
17614;SDS011;8926;49.720;6.576;2022-12-18T09:04:27;21.37;;;16.57;;
17614;SDS011;8926;49.720;6.576;2022-12-18T09:06:53;20.57;;;16.93;;
17614;SDS011;8926;49.720;6.576;2022-12-18T09:09:18;23.17;;;18.10;;
17614;SDS011;8926;49.720;6.576;2022-12-18T09:11:43;20.40;;;17.80;;
17614;SDS011;8926;49.720;6.576;2022-12-18T09:14:09;21.50;;;17.30;;
17614;SDS011;8926;49.720;6.576;2022-12-18T09:16:35;20.27;;;18.07;;
17614;SDS011;8926;49.720;6.576;2022-12-18T09:19:01;19.37;;;17.37;;
17614;SDS011;8926;49.720;6.576;2022-12-18T09:21:29;17.97;;;16.27;;
17614;SDS011;8926;49.720;6.576;2022-12-18T09:23:56;17.77;;;15.87;;
17614;SDS011;8926;49.720;6.576;2022-12-18T09:26:22;16.87;;;15.17;;
17614;SDS011;8926;49.720;6.576;2022-12-18T09:28:49;15.40;;;13.87;;
17614;SDS011;8926;49.720;6.576;2022-12-18T09:31:16;16.90;;;15.10;;
17614;SDS011;8926;49.720;6.576;2022-12-18T09:33:42;16.80;;;15.07;;
17614;SDS011;8926;49.720;6.576;2022-12-18T09:36:10;19.43;;;17.43;;
17614;SDS011;8926;49.720;6.576;2022-12-18T09:38:37;21.33;;;16.87;;
17614;SDS011;8926;49.720;6.576;2022-12-18T09:41:04;18.50;;;16.07;;
17614;SDS011;8926;49.720;6.576;2022-12-18T09:43:43;17.97;;;15.60;;
17614;SDS011;8926;49.720;6.576;2022-12-18T09:46:23;20.10;;;16.70;;
17614;SDS011;8926;49.720;6.576;2022-12-18T09:48:54;17.27;;;15.50;;
17614;SDS011;8926;49.720;6.576;2022-12-18T09:51:26;17.87;;;16.07;;
17614;SDS011;8926;49.720;6.576;2022-12-18T09:54:05;22.23;;;18.03;;
17614;SDS011;8926;49.720;6.576;2022-12-18T09:56:38;18.30;;;15.63;;
17614;SDS011;8926;49.720;6.576;2022-12-18T09:59:06;18.30;;;15.17;;
17614;SDS011;8926;49.720;6.576;2022-12-18T10:02:21;17.80;;;15.90;;
17614;SDS011;8926;49.720;6.576;2022-12-18T10:04:53;19.77;;;17.67;;
17614;SDS011;8926;49.720;6.576;2022-12-18T10:07:23;16.77;;;14.90;;
17614;SDS011;8926;49.720;6.576;2022-12-18T10:10:07;15.43;;;13.77;;
17614;SDS011;8926;49.720;6.576;2022-12-18T10:13:02;15.00;;;13.43;;
17614;SDS011;8926;49.720;6.576;2022-12-18T10:16:16;18.33;;;14.17;;
17614;SDS011;8926;49.720;6.576;2022-12-18T10:21:55;16.70;;;14.03;;
17614;SDS011;8926;49.720;6.576;2022-12-18T10:24:35;18.33;;;16.43;;
17614;SDS011;8926;49.720;6.576;2022-12-18T10:27:35;21.73;;;16.53;;
17614;SDS011;8926;49.720;6.576;2022-12-18T10:29:54;20.73;;;16.57;;
17614;SDS011;8926;49.720;6.576;2022-12-18T10:32:29;18.63;;;15.23;;
17614;SDS011;8926;49.720;6.576;2022-12-18T10:34:56;17.63;;;15.57;;
17614;SDS011;8926;49.720;6.576;2022-12-18T10:37:24;19.43;;;15.33;;
17614;SDS011;8926;49.720;6.576;2022-12-18T10:42:40;19.97;;;15.07;;
17614;SDS011;8926;49.720;6.576;2022-12-18T10:45:15;18.73;;;15.57;;
17614;SDS011;8926;49.720;6.576;2022-12-18T10:47:46;18.63;;;15.30;;
17614;SDS011;8926;49.720;6.576;2022-12-18T10:53:01;20.07;;;15.43;;
17614;SDS011;8926;49.720;6.576;2022-12-18T10:55:38;17.67;;;14.77;;
17614;SDS011;8926;49.720;6.576;2022-12-18T11:00:47;15.57;;;13.43;;
17614;SDS011;8926;49.720;6.576;2022-12-18T11:03:32;16.93;;;13.13;;
17614;SDS011;8926;49.720;6.576;2022-12-18T11:08:33;16.40;;;13.33;;
17614;SDS011;8926;49.720;6.576;2022-12-18T11:10:58;16.30;;;13.10;;
17614;SDS011;8926;49.720;6.576;2022-12-18T11:13:25;15.63;;;13.27;;
17614;SDS011;8926;49.720;6.576;2022-12-18T11:15:53;15.13;;;12.77;;
17614;SDS011;8926;49.720;6.576;2022-12-18T11:20:55;15.80;;;12.87;;
17614;SDS011;8926;49.720;6.576;2022-12-18T11:23:22;14.63;;;13.10;;
17614;SDS011;8926;49.720;6.576;2022-12-18T11:25:59;15.77;;;13.10;;
17614;SDS011;8926;49.720;6.576;2022-12-18T11:28:46;16.03;;;12.40;;
17614;SDS011;8926;49.720;6.576;2022-12-18T11:31:46;19.10;;;14.50;;
17614;SDS011;8926;49.720;6.576;2022-12-18T11:36:52;15.57;;;13.47;;
17614;SDS011;8926;49.720;6.576;2022-12-18T11:42:17;14.97;;;13.20;;
17614;SDS011;8926;49.720;6.576;2022-12-18T11:45:02;12.83;;;11.50;;
17614;SDS011;8926;49.720;6.576;2022-12-18T11:47:47;13.40;;;12.00;;
17614;SDS011;8926;49.720;6.576;2022-12-18T11:50:18;16.23;;;13.20;;
17614;SDS011;8926;49.720;6.576;2022-12-18T11:52:47;17.90;;;14.80;;
17614;SDS011;8926;49.720;6.576;2022-12-18T11:55:13;24.20;;;17.33;;
17614;SDS011;8926;49.720;6.576;2022-12-18T11:58:03;19.40;;;15.10;;
17614;SDS011;8926;49.720;6.576;2022-12-18T12:00:50;22.40;;;15.07;;
17614;SDS011;8926;49.720;6.576;2022-12-18T12:03:48;16.90;;;13.10;;
17614;SDS011;8926;49.720;6.576;2022-12-18T12:19:51;21.90;;;15.83;;
17614;SDS011;8926;49.720;6.576;2022-12-18T12:22:36;19.90;;;15.50;;
17614;SDS011;8926;49.720;6.576;2022-12-18T12:25:36;16.17;;;13.67;;
17614;SDS011;8926;49.720;6.576;2022-12-18T12:34:01;13.10;;;11.40;;
17614;SDS011;8926;49.720;6.576;2022-12-18T12:39:40;16.93;;;12.83;;
17614;SDS011;8926;49.720;6.576;2022-12-18T12:42:20;16.63;;;13.67;;
17614;SDS011;8926;49.720;6.576;2022-12-18T12:45:18;16.30;;;12.43;;
17614;SDS011;8926;49.720;6.576;2022-12-18T12:47:51;21.27;;;15.37;;
17614;SDS011;8926;49.720;6.576;2022-12-18T12:50:19;17.60;;;14.33;;
17614;SDS011;8926;49.720;6.576;2022-12-18T12:52:47;19.67;;;14.10;;
17614;SDS011;8926;49.720;6.576;2022-12-18T12:55:19;16.47;;;13.60;;
17614;SDS011;8926;49.720;6.576;2022-12-18T12:58:02;14.47;;;12.93;;
17614;SDS011;8926;49.720;6.576;2022-12-18T13:00:44;15.70;;;12.90;;
17614;SDS011;8926;49.720;6.576;2022-12-18T13:06:02;19.20;;;14.20;;
17614;SDS011;8926;49.720;6.576;2022-12-18T13:08:55;19.87;;;14.13;;
17614;SDS011;8926;49.720;6.576;2022-12-18T13:11:55;17.37;;;13.70;;
17614;SDS011;8926;49.720;6.576;2022-12-18T13:14:33;21.87;;;14.60;;
17614;SDS011;8926;49.720;6.576;2022-12-18T13:19:44;18.60;;;14.00;;
17614;SDS011;8926;49.720;6.576;2022-12-18T13:22:34;15.90;;;13.03;;
17614;SDS011;8926;49.720;6.576;2022-12-18T13:28:14;18.50;;;14.27;;
17614;SDS011;8926;49.720;6.576;2022-12-18T13:35:51;21.23;;;14.97;;
17614;SDS011;8926;49.720;6.576;2022-12-18T13:38:36;16.40;;;13.60;;
17614;SDS011;8926;49.720;6.576;2022-12-18T13:43:44;20.93;;;15.30;;
17614;SDS011;8926;49.720;6.576;2022-12-18T13:46:19;17.10;;;14.13;;
17614;SDS011;8926;49.720;6.576;2022-12-18T13:48:52;15.97;;;12.70;;
17614;SDS011;8926;49.720;6.576;2022-12-18T13:51:21;19.60;;;15.10;;
17614;SDS011;8926;49.720;6.576;2022-12-18T13:53:53;20.67;;;15.30;;
17614;SDS011;8926;49.720;6.576;2022-12-18T13:56:25;19.20;;;14.80;;
17614;SDS011;8926;49.720;6.576;2022-12-18T14:01:43;19.07;;;13.67;;
17614;SDS011;8926;49.720;6.576;2022-12-18T14:04:21;19.10;;;14.80;;
17614;SDS011;8926;49.720;6.576;2022-12-18T14:06:49;18.27;;;14.57;;
17614;SDS011;8926;49.720;6.576;2022-12-18T14:09:19;17.93;;;14.43;;
17614;SDS011;8926;49.720;6.576;2022-12-18T14:11:49;18.07;;;13.57;;
17614;SDS011;8926;49.720;6.576;2022-12-18T14:14:16;14.40;;;12.90;;
17614;SDS011;8926;49.720;6.576;2022-12-18T14:16:43;16.03;;;12.70;;
17614;SDS011;8926;49.720;6.576;2022-12-18T14:19:15;16.37;;;12.70;;
17614;SDS011;8926;49.720;6.576;2022-12-18T14:21:47;16.33;;;13.10;;
17614;SDS011;8926;49.720;6.576;2022-12-18T14:24:17;17.60;;;14.10;;
17614;SDS011;8926;49.720;6.576;2022-12-18T14:26:44;14.57;;;12.40;;
17614;SDS011;8926;49.720;6.576;2022-12-18T14:32:05;15.40;;;12.73;;
17614;SDS011;8926;49.720;6.576;2022-12-18T14:34:41;17.00;;;13.63;;
17614;SDS011;8926;49.720;6.576;2022-12-18T14:37:09;14.83;;;12.40;;
17614;SDS011;8926;49.720;6.576;2022-12-18T14:39:36;16.70;;;13.10;;
17614;SDS011;8926;49.720;6.576;2022-12-18T14:42:01;14.43;;;12.93;;
17614;SDS011;8926;49.720;6.576;2022-12-18T14:44:27;15.17;;;12.57;;
17614;SDS011;8926;49.720;6.576;2022-12-18T14:46:52;15.03;;;12.00;;
17614;SDS011;8926;49.720;6.576;2022-12-18T14:49:33;17.93;;;14.43;;
17614;SDS011;8926;49.720;6.576;2022-12-18T14:52:03;16.60;;;13.40;;
17614;SDS011;8926;49.720;6.576;2022-12-18T14:54:30;20.37;;;14.87;;
17614;SDS011;8926;49.720;6.576;2022-12-18T14:57:04;20.20;;;14.73;;
17614;SDS011;8926;49.720;6.576;2022-12-18T14:59:37;18.03;;;14.53;;
17614;SDS011;8926;49.720;6.576;2022-12-18T15:05:05;20.40;;;14.50;;
17614;SDS011;8926;49.720;6.576;2022-12-18T15:12:47;20.20;;;15.57;;
17614;SDS011;8926;49.720;6.576;2022-12-18T15:18:03;21.03;;;15.23;;
17614;SDS011;8926;49.720;6.576;2022-12-18T15:23:25;16.47;;;14.23;;
17614;SDS011;8926;49.720;6.576;2022-12-18T15:25:55;21.17;;;15.50;;
17614;SDS011;8926;49.720;6.576;2022-12-18T15:28:23;17.87;;;14.83;;
17614;SDS011;8926;49.720;6.576;2022-12-18T15:33:35;24.00;;;17.50;;
17614;SDS011;8926;49.720;6.576;2022-12-18T15:36:03;24.00;;;17.83;;
17614;SDS011;8926;49.720;6.576;2022-12-18T15:38:33;29.20;;;20.40;;
17614;SDS011;8926;49.720;6.576;2022-12-18T15:40:59;23.20;;;18.03;;
17614;SDS011;8926;49.720;6.576;2022-12-18T15:43:25;24.53;;;17.37;;
17614;SDS011;8926;49.720;6.576;2022-12-18T15:46:03;19.40;;;15.23;;
17614;SDS011;8926;49.720;6.576;2022-12-18T15:48:35;19.27;;;15.00;;
17614;SDS011;8926;49.720;6.576;2022-12-18T15:51:05;24.20;;;16.10;;
17614;SDS011;8926;49.720;6.576;2022-12-18T15:53:45;21.33;;;14.57;;
17614;SDS011;8926;49.720;6.576;2022-12-18T15:56:12;19.97;;;15.10;;
17614;SDS011;8926;49.720;6.576;2022-12-18T15:58:57;19.93;;;14.43;;
17614;SDS011;8926;49.720;6.576;2022-12-18T16:01:23;15.90;;;13.10;;
17614;SDS011;8926;49.720;6.576;2022-12-18T16:03:50;22.50;;;15.93;;
17614;SDS011;8926;49.720;6.576;2022-12-18T16:06:16;21.43;;;15.33;;
17614;SDS011;8926;49.720;6.576;2022-12-18T16:08:41;23.90;;;17.13;;
17614;SDS011;8926;49.720;6.576;2022-12-18T16:11:09;19.17;;;14.73;;
17614;SDS011;8926;49.720;6.576;2022-12-18T16:16:45;18.27;;;14.13;;
17614;SDS011;8926;49.720;6.576;2022-12-18T16:19:12;16.60;;;13.43;;
17614;SDS011;8926;49.720;6.576;2022-12-18T16:21:37;17.77;;;13.93;;
17614;SDS011;8926;49.720;6.576;2022-12-18T16:24:03;16.93;;;13.90;;
17614;SDS011;8926;49.720;6.576;2022-12-18T16:26:29;22.20;;;15.13;;
17614;SDS011;8926;49.720;6.576;2022-12-18T16:28:57;20.93;;;14.27;;
17614;SDS011;8926;49.720;6.576;2022-12-18T16:31:22;15.87;;;12.90;;